createdAt,value
2023-04-21T00:01:32.900Z,12.88
2023-04-21T00:04:00.369Z,12.57
2023-04-21T00:06:28.834Z,12.30
2023-04-21T00:08:55.403Z,12.13
2023-04-21T00:11:22.598Z,12.40
2023-04-21T00:13:49.503Z,12.16
2023-04-21T00:16:16.458Z,11.98
2023-04-21T00:18:43.305Z,11.89
2023-04-21T00:21:09.966Z,12.29
2023-04-21T00:23:36.665Z,13.21
2023-04-21T00:26:03.523Z,13.24
2023-04-21T00:28:30.622Z,13.12
2023-04-21T00:30:57.705Z,12.71
2023-04-21T00:33:24.397Z,12.92
2023-04-21T00:35:51.025Z,12.72
2023-04-21T00:38:18.779Z,12.74
2023-04-21T00:40:45.491Z,12.47
2023-04-21T00:43:13.202Z,12.18
2023-04-21T00:45:40.017Z,12.42
2023-04-21T00:48:07.734Z,12.83
2023-04-21T00:50:34.437Z,12.69
2023-04-21T00:53:01.580Z,13.10
2023-04-21T00:55:29.180Z,13.17
2023-04-21T00:57:57.522Z,13.46
2023-04-21T01:00:25.615Z,13.44
2023-04-21T01:02:52.392Z,12.97
2023-04-21T01:05:19.131Z,12.99
2023-04-21T01:07:45.946Z,12.83
2023-04-21T01:10:12.524Z,12.66
2023-04-21T01:12:45.532Z,12.94
2023-04-21T01:15:12.709Z,12.75
2023-04-21T01:17:40.439Z,12.93
2023-04-21T01:20:11.758Z,13.27
2023-04-21T01:22:39.570Z,12.92
2023-04-21T01:25:07.425Z,12.77
2023-04-21T01:27:34.066Z,13.56
2023-04-21T01:30:07.734Z,13.26
2023-04-21T01:32:35.781Z,12.87
2023-04-21T01:35:02.829Z,13.12
2023-04-21T01:37:32.567Z,13.56
2023-04-21T01:40:01.137Z,12.64
2023-04-21T01:42:28.839Z,12.88
2023-04-21T01:44:56.026Z,13.02
2023-04-21T01:47:23.010Z,12.88
2023-04-21T01:49:49.418Z,12.30
2023-04-21T01:52:16.172Z,12.07
2023-04-21T01:54:44.095Z,12.67
2023-04-21T01:57:10.853Z,12.90
2023-04-21T01:59:37.539Z,12.35
2023-04-21T02:02:04.856Z,12.72
2023-04-21T02:04:33.464Z,12.68
2023-04-21T02:07:00.462Z,12.33
2023-04-21T02:09:27.195Z,12.26
2023-04-21T02:11:56.572Z,11.95
2023-04-21T02:14:23.229Z,12.48
2023-04-21T02:16:50.027Z,12.37
2023-04-21T02:19:17.233Z,12.14
2023-04-21T02:21:44.111Z,12.91
2023-04-21T02:24:10.929Z,12.48
2023-04-21T02:26:37.689Z,12.61
2023-04-21T02:29:04.585Z,12.22
2023-04-21T02:33:59.735Z,13.15
2023-04-21T02:36:27.411Z,12.35
2023-04-21T02:38:55.460Z,12.81
2023-04-21T02:41:24.207Z,12.88
2023-04-21T02:43:50.851Z,13.54
2023-04-21T02:46:17.496Z,13.35
2023-04-21T02:48:44.088Z,12.81
2023-04-21T02:51:14.080Z,12.91
2023-04-21T02:53:41.441Z,12.99
2023-04-21T02:56:08.920Z,12.92
2023-04-21T02:58:36.479Z,13.21
2023-04-21T03:01:04.730Z,13.12
2023-04-21T03:03:32.172Z,13.57
2023-04-21T03:06:03.297Z,13.13
2023-04-21T03:08:31.231Z,13.55
2023-04-21T03:10:57.983Z,12.52
2023-04-21T03:13:24.917Z,13.11
2023-04-21T03:15:52.683Z,13.46
2023-04-21T03:18:19.275Z,13.20
2023-04-21T03:20:45.878Z,12.99
2023-04-21T03:23:12.706Z,12.58
2023-04-21T03:25:40.148Z,13.07
2023-04-21T03:28:07.087Z,12.67
2023-04-21T03:30:33.887Z,12.80
2023-04-21T03:33:00.698Z,12.72
2023-04-21T03:35:27.988Z,12.67
2023-04-21T03:37:54.644Z,12.43
2023-04-21T03:40:24.345Z,12.57
2023-04-21T03:42:51.117Z,12.51
2023-04-21T03:45:22.400Z,12.18
2023-04-21T03:47:49.752Z,12.69
2023-04-21T03:50:17.283Z,12.98
2023-04-21T03:52:44.310Z,13.22
2023-04-21T03:55:11.932Z,12.73
2023-04-21T03:57:40.085Z,12.54
2023-04-21T04:00:07.462Z,13.21
2023-04-21T04:02:35.276Z,12.59
2023-04-21T04:05:02.432Z,12.84
2023-04-21T04:07:31.067Z,13.08
2023-04-21T04:09:57.712Z,13.20
2023-04-21T04:12:24.638Z,12.60
2023-04-21T04:14:54.880Z,12.56
2023-04-21T04:17:22.011Z,12.88
2023-04-21T04:19:51.412Z,13.10
2023-04-21T04:22:19.419Z,12.72
2023-04-21T04:24:50.356Z,12.25
2023-04-21T04:27:18.340Z,11.85
2023-04-21T04:29:48.585Z,12.32
2023-04-21T04:32:16.103Z,12.40
2023-04-21T04:34:44.036Z,12.63
2023-04-21T04:37:11.246Z,12.75
2023-04-21T04:39:39.264Z,12.39
2023-04-21T04:42:12.048Z,12.06
2023-04-21T04:44:38.820Z,12.22
2023-04-21T04:47:06.478Z,12.19
2023-04-21T04:49:34.333Z,12.16
2023-04-21T04:52:02.572Z,12.71
2023-04-21T04:54:29.327Z,12.15
2023-04-21T04:56:56.931Z,13.24
2023-04-21T04:59:25.492Z,12.42
2023-04-21T05:01:53.061Z,12.22
2023-04-21T05:04:21.030Z,12.79
2023-04-21T05:06:55.875Z,12.65
2023-04-21T05:09:24.384Z,12.57
2023-04-21T05:11:51.493Z,12.67
2023-04-21T05:14:19.948Z,12.66
2023-04-21T05:16:48.786Z,12.32
2023-04-21T05:19:18.686Z,12.48
2023-04-21T05:21:47.684Z,12.86
2023-04-21T05:24:15.582Z,12.95
2023-04-21T05:26:42.793Z,13.66
2023-04-21T05:29:11.631Z,13.65
2023-04-21T05:31:39.970Z,13.60
2023-04-21T05:34:09.991Z,13.76
2023-04-21T05:36:36.692Z,14.79
2023-04-21T05:39:03.340Z,14.45
2023-04-21T05:41:33.873Z,14.74
2023-04-21T05:44:00.458Z,15.21
2023-04-21T05:46:27.093Z,14.93
2023-04-21T05:48:54.210Z,14.33
2023-04-21T05:51:20.611Z,15.07
2023-04-21T05:53:49.383Z,14.81
2023-04-21T05:56:16.031Z,14.40
2023-04-21T05:58:50.905Z,14.93
2023-04-21T06:01:17.760Z,15.08
2023-04-21T06:03:44.488Z,15.04
2023-04-21T06:06:11.698Z,14.85
2023-04-21T06:08:39.575Z,15.22
2023-04-21T06:11:06.197Z,15.48
2023-04-21T06:13:33.188Z,14.62
2023-04-21T06:16:00.928Z,15.60
2023-04-21T06:18:28.611Z,15.67
2023-04-21T06:20:55.575Z,15.75
2023-04-21T06:23:22.210Z,15.60
2023-04-21T06:25:59.688Z,15.15
2023-04-21T06:28:26.427Z,15.92
2023-04-21T06:30:52.861Z,15.96
2023-04-21T06:33:19.418Z,16.41
2023-04-21T06:35:46.165Z,16.60
2023-04-21T06:38:17.038Z,15.73
2023-04-21T06:40:43.574Z,16.98
2023-04-21T06:43:10.020Z,17.42
2023-04-21T06:45:38.136Z,17.42
2023-04-21T06:48:04.650Z,17.53
2023-04-21T06:50:32.188Z,17.94
2023-04-21T06:52:59.694Z,18.71
2023-04-21T06:55:26.311Z,18.22
2023-04-21T06:57:53.860Z,18.19
2023-04-21T07:00:21.029Z,18.02
2023-04-21T07:02:47.576Z,19.65
2023-04-21T07:05:14.032Z,18.51
2023-04-21T07:07:40.583Z,18.78
2023-04-21T07:10:08.406Z,18.29
2023-04-21T07:12:35.620Z,19.23
2023-04-21T07:15:02.477Z,18.94
2023-04-21T07:17:29.205Z,19.44
2023-04-21T07:19:56.409Z,19.10
2023-04-21T07:22:24.186Z,19.68
2023-04-21T07:24:51.383Z,18.23
2023-04-21T07:27:19.319Z,18.77
2023-04-21T07:29:47.711Z,18.81
2023-04-21T07:32:25.429Z,19.27
2023-04-21T07:34:51.974Z,19.91
2023-04-21T07:37:18.522Z,20.31
2023-04-21T07:39:45.889Z,20.65
2023-04-21T07:42:13.140Z,20.69
2023-04-21T07:44:43.477Z,19.85
2023-04-21T07:47:10.014Z,19.52
2023-04-21T07:49:36.575Z,19.49
2023-04-21T07:52:03.678Z,19.57
2023-04-21T07:54:31.772Z,20.18
2023-04-21T07:56:58.882Z,20.57
2023-04-21T07:59:25.622Z,19.05
2023-04-21T08:01:54.533Z,20.35
2023-04-21T08:04:21.460Z,20.79
2023-04-21T08:06:48.306Z,20.59
2023-04-21T08:09:16.128Z,21.59
2023-04-21T08:11:42.762Z,21.43
2023-04-21T08:14:12.214Z,20.52
2023-04-21T08:16:44.029Z,20.51
2023-04-21T08:19:10.769Z,20.04
2023-04-21T08:21:37.759Z,20.70
2023-04-21T08:24:04.258Z,20.29
2023-04-21T08:26:31.370Z,20.44
2023-04-21T08:28:57.800Z,20.64
2023-04-21T08:31:24.294Z,20.23
2023-04-21T08:34:01.287Z,21.51
2023-04-21T08:36:30.346Z,21.12
2023-04-21T08:38:57.860Z,21.71
2023-04-21T08:41:26.598Z,21.47
2023-04-21T08:43:54.924Z,22.76
2023-04-21T08:46:21.901Z,22.74
2023-04-21T08:51:22.506Z,23.15
2023-04-21T08:53:49.127Z,23.05
2023-04-21T08:56:15.583Z,23.12
2023-04-21T08:58:42.169Z,22.42
2023-04-21T09:01:08.720Z,22.92
2023-04-21T09:03:37.577Z,25.11
2023-04-21T09:06:10.231Z,23.44
2023-04-21T09:08:43.962Z,23.70
2023-04-21T09:11:14.485Z,22.63
2023-04-21T09:13:42.642Z,23.54
2023-04-21T09:16:17.452Z,22.04
2023-04-21T09:18:44.531Z,23.69
2023-04-21T09:21:12.618Z,21.54
2023-04-21T09:23:45.386Z,22.49
2023-04-21T09:26:12.510Z,23.43
2023-04-21T09:28:45.351Z,23.58
2023-04-21T09:31:16.581Z,22.39
2023-04-21T09:36:21.194Z,22.60
2023-04-21T09:39:20.400Z,21.63
2023-04-21T09:41:43.784Z,23.13
2023-04-21T09:44:10.226Z,22.37
2023-04-21T09:46:37.388Z,22.12
2023-04-21T09:49:04.915Z,21.72
2023-04-21T09:51:56.267Z,21.87
2023-04-21T09:54:29.809Z,22.93
2023-04-21T09:56:59.448Z,22.75
2023-04-21T09:59:30.646Z,23.36
2023-04-21T10:01:58.427Z,23.38
2023-04-21T10:04:25.760Z,23.43
2023-04-21T10:06:53.591Z,23.75
2023-04-21T10:09:23.636Z,23.44
2023-04-21T10:11:50.165Z,22.84
2023-04-21T10:14:16.591Z,21.82
2023-04-21T10:16:43.187Z,21.44
2023-04-21T10:19:25.956Z,21.66
2023-04-21T10:21:56.399Z,21.98
2023-04-21T10:24:24.353Z,22.74
2023-04-21T10:26:54.039Z,21.03
2023-04-21T10:29:43.745Z,20.82
2023-04-21T10:32:31.105Z,20.66
2023-04-21T10:34:57.899Z,21.72
2023-04-21T10:37:25.545Z,22.36
2023-04-21T10:39:53.520Z,21.74
2023-04-21T10:42:22.978Z,21.27
2023-04-21T10:44:58.425Z,23.64
2023-04-21T10:47:45.230Z,21.06
2023-04-21T10:50:13.288Z,21.24
2023-04-21T10:52:39.732Z,20.93
2023-04-21T10:55:07.473Z,21.15
2023-04-21T10:57:34.533Z,20.37
2023-04-21T11:00:01.198Z,21.01
2023-04-21T11:02:27.756Z,21.75
2023-04-21T11:04:55.193Z,23.35
2023-04-21T11:07:23.152Z,23.75
2023-04-21T11:10:01.700Z,25.19
2023-04-21T11:12:30.028Z,23.17
2023-04-21T11:14:57.003Z,21.35
2023-04-21T11:17:24.504Z,21.57
2023-04-21T11:19:55.831Z,21.67
2023-04-21T11:22:23.706Z,21.44
2023-04-21T11:24:52.821Z,20.99
2023-04-21T11:27:22.370Z,21.58
2023-04-21T11:29:49.872Z,20.70
2023-04-21T11:32:16.820Z,21.27
2023-04-21T11:34:43.322Z,23.00
2023-04-21T11:37:10.750Z,21.77
2023-04-21T11:39:40.671Z,22.12
2023-04-21T11:42:07.059Z,22.41
2023-04-21T11:44:41.008Z,21.60
2023-04-21T11:47:19.598Z,20.85
2023-04-21T11:49:46.963Z,21.77
2023-04-21T11:52:27.010Z,21.81
2023-04-21T11:54:58.120Z,22.36
2023-04-21T11:57:25.566Z,21.42
2023-04-21T11:59:52.748Z,22.58
2023-04-21T12:02:24.366Z,22.66
2023-04-21T12:05:03.758Z,22.40
2023-04-21T12:07:31.761Z,21.78
2023-04-21T12:09:58.804Z,21.68
2023-04-21T12:12:25.440Z,21.67
2023-04-21T12:14:52.113Z,22.44
2023-04-21T12:17:18.879Z,22.55
2023-04-21T12:19:45.780Z,23.54
2023-04-21T12:22:13.280Z,23.61
2023-04-21T12:24:40.195Z,22.73
2023-04-21T12:27:08.153Z,22.85
2023-04-21T12:29:38.020Z,23.65
2023-04-21T12:32:05.584Z,25.00
2023-04-21T12:34:32.371Z,24.38
2023-04-21T12:37:00.305Z,24.64
2023-04-21T12:39:26.964Z,23.75
2023-04-21T12:41:53.667Z,24.17
2023-04-21T12:44:21.492Z,23.96
2023-04-21T12:46:49.218Z,23.81
2023-04-21T12:49:17.669Z,24.95
2023-04-21T12:51:44.877Z,24.14
2023-04-21T12:54:11.994Z,23.85
2023-04-21T12:56:40.473Z,23.02
2023-04-21T12:59:07.645Z,22.90
2023-04-21T13:01:35.476Z,22.68
2023-04-21T13:04:02.636Z,23.45
2023-04-21T13:06:31.603Z,23.57
2023-04-21T13:08:58.830Z,24.17
2023-04-21T13:11:25.854Z,22.09
2023-04-21T13:13:52.538Z,23.14
2023-04-21T13:16:20.536Z,22.36
2023-04-21T13:18:47.465Z,22.03
2023-04-21T13:21:14.319Z,23.53
2023-04-21T13:23:41.417Z,22.71
2023-04-21T13:26:08.369Z,22.88
2023-04-21T13:28:34.954Z,22.43
2023-04-21T13:31:01.733Z,22.48
2023-04-21T13:33:28.394Z,23.42
2023-04-21T13:35:55.034Z,22.22
2023-04-21T13:38:26.816Z,21.96
2023-04-21T13:40:53.488Z,22.13
2023-04-21T13:43:19.922Z,22.05
2023-04-21T13:45:48.240Z,22.79
2023-04-21T13:48:15.162Z,22.35
2023-04-21T13:50:41.670Z,20.99
2023-04-21T13:53:08.556Z,21.14
2023-04-21T13:55:35.154Z,21.90
2023-04-21T13:58:01.918Z,21.07
2023-04-21T14:00:28.743Z,21.13
2023-04-21T14:02:56.147Z,21.59
2023-04-21T14:05:22.943Z,21.52
2023-04-21T14:07:49.579Z,21.72
2023-04-21T14:10:16.047Z,21.15
2023-04-21T14:12:45.414Z,21.94
2023-04-21T14:15:12.373Z,21.89
2023-04-21T14:17:38.879Z,21.84
2023-04-21T14:20:07.443Z,21.90
2023-04-21T14:22:33.916Z,23.51
2023-04-21T14:25:00.663Z,23.92
2023-04-21T14:27:27.362Z,23.94
2023-04-21T14:29:53.758Z,23.44
2023-04-21T14:32:20.937Z,22.93
2023-04-21T14:34:48.336Z,23.31
2023-04-21T14:37:14.933Z,22.68
2023-04-21T14:39:41.916Z,22.76
2023-04-21T14:42:09.884Z,23.06
2023-04-21T14:44:36.647Z,23.20
2023-04-21T14:47:09.664Z,22.33
2023-04-21T14:49:39.472Z,21.80
2023-04-21T14:52:09.380Z,23.17
2023-04-21T14:54:36.962Z,22.02
2023-04-21T14:57:18.802Z,22.12
2023-04-21T14:59:51.665Z,22.92
2023-04-21T15:02:27.438Z,23.36
2023-04-21T15:04:54.311Z,23.14
2023-04-21T15:07:24.461Z,22.47
2023-04-21T15:09:52.233Z,23.41
2023-04-21T15:12:19.580Z,23.91
2023-04-21T15:14:46.408Z,22.62
2023-04-21T15:17:13.404Z,23.05
2023-04-21T15:19:43.407Z,22.18
2023-04-21T15:22:12.265Z,22.39
2023-04-21T15:24:38.921Z,22.35
2023-04-21T15:27:06.061Z,21.79
2023-04-21T15:29:33.082Z,21.58
2023-04-21T15:32:15.699Z,21.29
2023-04-21T15:34:42.852Z,21.19
2023-04-21T15:37:09.609Z,21.13
2023-04-21T15:39:36.657Z,21.92
2023-04-21T15:42:04.717Z,21.46
2023-04-21T15:44:33.347Z,21.18
2023-04-21T15:47:00.512Z,20.92
2023-04-21T15:49:28.856Z,22.14
2023-04-21T15:52:21.698Z,21.74
2023-04-21T15:54:49.406Z,22.07
2023-04-21T15:57:21.984Z,21.73
2023-04-21T15:59:49.050Z,21.22
2023-04-21T16:02:16.416Z,21.25
2023-04-21T16:04:44.618Z,21.61
2023-04-21T16:07:11.817Z,21.40
2023-04-21T16:09:48.555Z,21.41
2023-04-21T16:12:15.161Z,22.05
2023-04-21T16:14:55.969Z,22.64
2023-04-21T16:17:28.127Z,22.20
2023-04-21T16:19:55.259Z,21.97
2023-04-21T16:22:34.729Z,22.58
2023-04-21T16:25:02.190Z,21.34
2023-04-21T16:27:28.843Z,21.89
2023-04-21T16:29:56.213Z,21.72
2023-04-21T16:32:24.807Z,20.79
2023-04-21T16:34:52.582Z,20.68
2023-04-21T16:37:19.392Z,20.80
2023-04-21T16:39:47.345Z,21.43
2023-04-21T16:42:14.312Z,22.13
2023-04-21T16:44:42.333Z,21.06
2023-04-21T16:47:29.825Z,20.77
2023-04-21T16:49:58.466Z,20.86
2023-04-21T16:52:32.045Z,20.16
2023-04-21T16:54:59.262Z,20.50
2023-04-21T16:57:28.431Z,21.70
2023-04-21T16:59:55.505Z,21.28
2023-04-21T17:02:24.262Z,21.46
2023-04-21T17:04:52.306Z,21.19
2023-04-21T17:07:20.677Z,21.25
2023-04-21T17:09:48.004Z,21.45
2023-04-21T17:12:15.791Z,20.68
2023-04-21T17:14:42.806Z,21.73
2023-04-21T17:17:09.678Z,21.15
2023-04-21T17:19:36.797Z,21.03
2023-04-21T17:22:05.110Z,20.73
2023-04-21T17:24:44.879Z,21.65
2023-04-21T17:27:19.070Z,21.17
2023-04-21T17:29:49.605Z,20.54
2023-04-21T17:32:17.239Z,21.10
2023-04-21T17:34:46.683Z,20.24
2023-04-21T17:37:14.151Z,20.47
2023-04-21T17:39:41.053Z,19.34
2023-04-21T17:42:09.074Z,19.51
2023-04-21T17:44:36.772Z,19.35
2023-04-21T17:47:08.473Z,19.65
2023-04-21T17:49:38.882Z,19.22
2023-04-21T17:52:09.213Z,19.28
2023-04-21T17:54:37.844Z,19.38
2023-04-21T17:57:07.419Z,19.29
2023-04-21T17:59:34.361Z,19.95
2023-04-21T18:02:01.656Z,20.01
2023-04-21T18:04:34.309Z,19.60
2023-04-21T18:07:05.325Z,19.28
2023-04-21T18:09:51.712Z,19.65
2023-04-21T18:12:19.611Z,19.22
2023-04-21T18:14:49.091Z,18.89
2023-04-21T18:17:17.538Z,18.94
2023-04-21T18:19:45.001Z,19.45
2023-04-21T18:22:12.361Z,19.49
2023-04-21T18:24:40.797Z,18.77
2023-04-21T18:27:08.225Z,19.36
2023-04-21T18:29:35.815Z,19.23
2023-04-21T18:32:03.154Z,18.69
2023-04-21T18:34:30.617Z,18.86
2023-04-21T18:36:57.917Z,18.49
2023-04-21T18:39:25.926Z,18.06
2023-04-21T18:41:54.268Z,18.49
2023-04-21T18:44:21.960Z,18.38
2023-04-21T18:46:53.699Z,18.21
2023-04-21T18:49:22.497Z,17.90
2023-04-21T18:51:49.767Z,17.87
2023-04-21T18:54:18.316Z,17.85
2023-04-21T18:56:47.482Z,17.94
2023-04-21T18:59:14.776Z,17.56
2023-04-21T19:01:42.047Z,17.79
2023-04-21T19:04:12.628Z,17.95
2023-04-21T19:06:39.997Z,17.81
2023-04-21T19:09:07.182Z,18.11
2023-04-21T19:11:36.420Z,18.46
2023-04-21T19:14:03.100Z,17.91
2023-04-21T19:16:46.044Z,17.58
2023-04-21T19:19:12.809Z,17.86
2023-04-21T19:21:40.503Z,17.94
2023-04-21T19:24:07.967Z,17.93
2023-04-21T19:26:34.908Z,18.16
2023-04-21T19:29:02.106Z,18.29
2023-04-21T19:31:29.218Z,17.93
2023-04-21T19:34:10.356Z,18.10
2023-04-21T19:36:38.080Z,17.78
2023-04-21T19:39:06.995Z,18.07
2023-04-21T19:41:41.107Z,16.62
2023-04-21T19:44:08.484Z,16.68
2023-04-21T19:46:37.020Z,17.46
2023-04-21T19:49:04.586Z,17.60
2023-04-21T19:51:33.297Z,17.08
2023-04-21T19:54:10.552Z,17.36
2023-04-21T19:56:38.584Z,18.13
2023-04-21T19:59:06.217Z,18.50
2023-04-21T20:01:36.886Z,18.48
2023-04-21T20:04:04.666Z,18.23
2023-04-21T20:06:32.506Z,18.48
2023-04-21T20:08:59.260Z,18.12
2023-04-21T20:11:29.198Z,18.07
2023-04-21T20:13:57.009Z,18.87
2023-04-21T20:16:27.116Z,18.87
2023-04-21T20:18:54.617Z,18.10
2023-04-21T20:21:21.966Z,18.21
2023-04-21T20:23:55.012Z,17.92
2023-04-21T20:26:22.520Z,18.16
2023-04-21T20:28:49.017Z,18.39
2023-04-21T20:31:16.597Z,18.31
2023-04-21T20:33:43.324Z,17.81
2023-04-21T20:36:17.772Z,18.21
2023-04-21T20:38:49.752Z,17.70
2023-04-21T20:41:16.550Z,17.89
2023-04-21T20:43:45.618Z,18.28
2023-04-21T20:46:12.845Z,18.51
2023-04-21T20:48:40.350Z,18.09
2023-04-21T20:51:27.320Z,18.73
2023-04-21T20:53:54.209Z,18.68
2023-04-21T20:56:23.035Z,18.40
2023-04-21T20:58:49.706Z,17.86
2023-04-21T21:01:16.989Z,17.53
2023-04-21T21:03:44.353Z,17.83
2023-04-21T21:06:20.727Z,18.23
2023-04-21T21:08:47.954Z,18.40
2023-04-21T21:11:15.439Z,17.48
2023-04-21T21:13:46.133Z,18.14
2023-04-21T21:16:16.040Z,17.46
2023-04-21T21:18:43.546Z,17.59
2023-04-21T21:21:12.250Z,17.37
2023-04-21T21:23:39.266Z,17.78
2023-04-21T21:26:06.427Z,17.28
2023-04-21T21:28:33.955Z,17.70
2023-04-21T21:31:01.646Z,17.61
2023-04-21T21:33:28.573Z,18.16
2023-04-21T21:35:56.071Z,17.19
2023-04-21T21:38:23.930Z,18.32
2023-04-21T21:40:51.118Z,18.18
2023-04-21T21:43:18.484Z,17.29
2023-04-21T21:45:55.202Z,17.62
2023-04-21T21:48:22.725Z,17.69
2023-04-21T21:50:49.971Z,17.21
2023-04-21T21:53:19.259Z,17.83
2023-04-21T21:55:46.019Z,17.65
2023-04-21T21:58:14.251Z,17.56
2023-04-21T22:00:41.798Z,17.46
2023-04-21T22:03:11.878Z,17.23
2023-04-21T22:05:39.857Z,17.65
2023-04-21T22:08:07.641Z,17.55
2023-04-21T22:10:34.983Z,16.88
2023-04-21T22:13:02.222Z,17.46
2023-04-21T22:15:58.226Z,17.53
2023-04-21T22:18:25.126Z,16.80
2023-04-21T22:20:52.046Z,17.33
2023-04-21T22:23:20.692Z,17.01
2023-04-21T22:25:48.794Z,17.17
2023-04-21T22:28:22.091Z,16.84
2023-04-21T22:30:49.168Z,16.97
2023-04-21T22:33:19.641Z,16.66
2023-04-21T22:35:46.801Z,16.77
2023-04-21T22:38:14.576Z,16.07
2023-04-21T22:40:41.454Z,16.81
2023-04-21T22:43:08.365Z,16.34
2023-04-21T22:45:35.386Z,16.80
2023-04-21T22:48:39.043Z,16.89
2023-04-21T22:51:06.477Z,16.12
2023-04-21T22:53:33.671Z,16.46
2023-04-21T22:56:00.841Z,15.88
2023-04-21T22:58:30.936Z,16.37
2023-04-21T23:00:58.739Z,16.88
2023-04-21T23:03:25.742Z,16.78
2023-04-21T23:05:59.482Z,16.74
2023-04-21T23:08:27.187Z,16.54
2023-04-21T23:10:54.112Z,16.56
2023-04-21T23:13:21.410Z,16.12
2023-04-21T23:15:49.041Z,16.65
2023-04-21T23:18:16.787Z,16.11
2023-04-21T23:20:43.807Z,16.22
2023-04-21T23:23:11.227Z,16.27
2023-04-21T23:25:38.738Z,16.42
2023-04-21T23:28:06.253Z,16.55
2023-04-21T23:30:34.468Z,16.38
2023-04-21T23:33:16.655Z,16.75
2023-04-21T23:35:43.599Z,16.68
2023-04-21T23:38:11.651Z,16.78
2023-04-21T23:40:46.984Z,16.92
2023-04-21T23:43:18.846Z,16.70
2023-04-21T23:45:48.309Z,16.58
2023-04-21T23:48:17.134Z,16.78
2023-04-21T23:50:44.757Z,16.60
2023-04-21T23:53:12.143Z,16.33
2023-04-21T23:55:41.665Z,16.27
2023-04-21T23:58:08.278Z,16.00
